sensor_id;sensor_type;location;lat;lon;timestamp;P1;durP1;ratioP1;P2;durP2;ratioP2
42602;SDS011;28233;55.748;48.752;2023-12-20T00:01:25;0.40;;;0.30;;
42602;SDS011;28233;55.748;48.752;2023-12-20T00:03:29;0.10;;;0.10;;
42602;SDS011;28233;55.748;48.752;2023-12-20T00:05:43;0.55;;;0.20;;
42602;SDS011;28233;55.748;48.752;2023-12-20T00:07:46;15.13;;;1.45;;
42602;SDS011;28233;55.748;48.752;2023-12-20T00:09:49;0.55;;;0.28;;
42602;SDS011;28233;55.748;48.752;2023-12-20T00:11:52;0.40;;;0.10;;
42602;SDS011;28233;55.748;48.752;2023-12-20T00:13:55;0.60;;;0.20;;
42602;SDS011;28233;55.748;48.752;2023-12-20T00:15:57;0.55;;;0.20;;
42602;SDS011;28233;55.748;48.752;2023-12-20T00:18:00;0.75;;;0.20;;
42602;SDS011;28233;55.748;48.752;2023-12-20T00:20:03;0.43;;;0.25;;
42602;SDS011;28233;55.748;48.752;2023-12-20T00:22:08;0.35;;;0.20;;
42602;SDS011;28233;55.748;48.752;2023-12-20T00:24:11;0.25;;;0.22;;
42602;SDS011;28233;55.748;48.752;2023-12-20T00:26:14;0.35;;;0.20;;
42602;SDS011;28233;55.748;48.752;2023-12-20T00:28:17;0.82;;;0.20;;
42602;SDS011;28233;55.748;48.752;2023-12-20T00:30:19;0.32;;;0.20;;
42602;SDS011;28233;55.748;48.752;2023-12-20T00:32:23;0.43;;;0.30;;
42602;SDS011;28233;55.748;48.752;2023-12-20T00:34:26;0.10;;;0.10;;
42602;SDS011;28233;55.748;48.752;2023-12-20T00:36:29;0.63;;;0.30;;
42602;SDS011;28233;55.748;48.752;2023-12-20T00:38:32;0.38;;;0.20;;
42602;SDS011;28233;55.748;48.752;2023-12-20T00:40:34;0.30;;;0.20;;
42602;SDS011;28233;55.748;48.752;2023-12-20T00:42:37;0.40;;;0.30;;
42602;SDS011;28233;55.748;48.752;2023-12-20T00:44:41;0.30;;;0.20;;
42602;SDS011;28233;55.748;48.752;2023-12-20T00:46:43;1.65;;;0.30;;
42602;SDS011;28233;55.748;48.752;2023-12-20T00:48:46;0.30;;;0.25;;
42602;SDS011;28233;55.748;48.752;2023-12-20T00:50:49;0.50;;;0.28;;
42602;SDS011;28233;55.748;48.752;2023-12-20T00:52:52;0.52;;;0.52;;
42602;SDS011;28233;55.748;48.752;2023-12-20T00:54:57;0.45;;;0.25;;
42602;SDS011;28233;55.748;48.752;2023-12-20T00:56:59;0.68;;;0.20;;
42602;SDS011;28233;55.748;48.752;2023-12-20T00:59:02;0.90;;;0.30;;
42602;SDS011;28233;55.748;48.752;2023-12-20T01:01:05;0.47;;;0.30;;
42602;SDS011;28233;55.748;48.752;2023-12-20T01:03:08;0.35;;;0.22;;
42602;SDS011;28233;55.748;48.752;2023-12-20T01:05:11;0.60;;;0.40;;
42602;SDS011;28233;55.748;48.752;2023-12-20T01:07:14;0.60;;;0.50;;
42602;SDS011;28233;55.748;48.752;2023-12-20T01:09:17;0.50;;;0.30;;
42602;SDS011;28233;55.748;48.752;2023-12-20T01:11:20;0.85;;;0.50;;
42602;SDS011;28233;55.748;48.752;2023-12-20T01:13:24;0.70;;;0.30;;
42602;SDS011;28233;55.748;48.752;2023-12-20T01:15:27;1.05;;;0.50;;
42602;SDS011;28233;55.748;48.752;2023-12-20T01:17:29;1.02;;;0.43;;
42602;SDS011;28233;55.748;48.752;2023-12-20T01:19:32;0.70;;;0.40;;
42602;SDS011;28233;55.748;48.752;2023-12-20T01:21:35;1.13;;;0.60;;
42602;SDS011;28233;55.748;48.752;2023-12-20T01:23:38;1.63;;;0.60;;
42602;SDS011;28233;55.748;48.752;2023-12-20T01:25:41;0.80;;;0.70;;
42602;SDS011;28233;55.748;48.752;2023-12-20T01:27:44;1.38;;;0.63;;
42602;SDS011;28233;55.748;48.752;2023-12-20T01:29:47;1.08;;;0.77;;
42602;SDS011;28233;55.748;48.752;2023-12-20T01:31:50;1.85;;;0.90;;
42602;SDS011;28233;55.748;48.752;2023-12-20T01:33:53;1.38;;;0.82;;
42602;SDS011;28233;55.748;48.752;2023-12-20T01:35:56;0.80;;;0.50;;
42602;SDS011;28233;55.748;48.752;2023-12-20T01:37:59;3.92;;;0.73;;
42602;SDS011;28233;55.748;48.752;2023-12-20T01:40:02;1.73;;;0.90;;
42602;SDS011;28233;55.748;48.752;2023-12-20T01:42:05;2.15;;;1.00;;
42602;SDS011;28233;55.748;48.752;2023-12-20T01:44:08;2.10;;;0.73;;
42602;SDS011;28233;55.748;48.752;2023-12-20T01:46:11;1.30;;;0.85;;
42602;SDS011;28233;55.748;48.752;2023-12-20T01:48:14;1.48;;;0.98;;
42602;SDS011;28233;55.748;48.752;2023-12-20T01:50:19;4.63;;;0.95;;
42602;SDS011;28233;55.748;48.752;2023-12-20T01:52:22;1.67;;;1.00;;
42602;SDS011;28233;55.748;48.752;2023-12-20T01:54:28;2.65;;;0.90;;
42602;SDS011;28233;55.748;48.752;2023-12-20T01:56:31;3.13;;;1.45;;
42602;SDS011;28233;55.748;48.752;2023-12-20T01:58:37;1.98;;;0.98;;
42602;SDS011;28233;55.748;48.752;2023-12-20T02:00:44;5.22;;;1.10;;
42602;SDS011;28233;55.748;48.752;2023-12-20T02:02:47;2.05;;;0.90;;
42602;SDS011;28233;55.748;48.752;2023-12-20T02:04:52;2.03;;;0.88;;
42602;SDS011;28233;55.748;48.752;2023-12-20T02:06:55;5.45;;;1.10;;
42602;SDS011;28233;55.748;48.752;2023-12-20T02:08:59;1.58;;;0.90;;
42602;SDS011;28233;55.748;48.752;2023-12-20T02:11:02;3.72;;;0.85;;
42602;SDS011;28233;55.748;48.752;2023-12-20T02:13:05;5.68;;;1.02;;
42602;SDS011;28233;55.748;48.752;2023-12-20T02:15:08;14.45;;;1.27;;
42602;SDS011;28233;55.748;48.752;2023-12-20T02:17:12;3.33;;;1.02;;
42602;SDS011;28233;55.748;48.752;2023-12-20T02:19:15;1.83;;;0.88;;
42602;SDS011;28233;55.748;48.752;2023-12-20T02:21:31;10.63;;;1.35;;
42602;SDS011;28233;55.748;48.752;2023-12-20T02:23:36;8.02;;;1.13;;
42602;SDS011;28233;55.748;48.752;2023-12-20T02:25:38;2.25;;;1.00;;
42602;SDS011;28233;55.748;48.752;2023-12-20T02:27:41;1.75;;;1.00;;
42602;SDS011;28233;55.748;48.752;2023-12-20T02:29:46;7.43;;;1.20;;
42602;SDS011;28233;55.748;48.752;2023-12-20T02:31:50;2.47;;;1.13;;
42602;SDS011;28233;55.748;48.752;2023-12-20T02:33:53;5.18;;;1.02;;
42602;SDS011;28233;55.748;48.752;2023-12-20T02:35:56;13.13;;;1.35;;
42602;SDS011;28233;55.748;48.752;2023-12-20T02:37:59;28.65;;;1.67;;
42602;SDS011;28233;55.748;48.752;2023-12-20T02:40:02;13.63;;;1.58;;
42602;SDS011;28233;55.748;48.752;2023-12-20T02:42:06;9.00;;;1.60;;
42602;SDS011;28233;55.748;48.752;2023-12-20T02:44:09;3.45;;;1.00;;
42602;SDS011;28233;55.748;48.752;2023-12-20T02:46:12;11.55;;;1.10;;
42602;SDS011;28233;55.748;48.752;2023-12-20T02:48:18;26.27;;;1.67;;
42602;SDS011;28233;55.748;48.752;2023-12-20T02:50:21;4.85;;;1.00;;
42602;SDS011;28233;55.748;48.752;2023-12-20T02:52:24;15.13;;;1.70;;
42602;SDS011;28233;55.748;48.752;2023-12-20T02:54:27;10.57;;;1.10;;
42602;SDS011;28233;55.748;48.752;2023-12-20T02:56:30;1.58;;;0.90;;
42602;SDS011;28233;55.748;48.752;2023-12-20T02:58:34;5.25;;;1.30;;
42602;SDS011;28233;55.748;48.752;2023-12-20T03:00:37;2.60;;;1.15;;
42602;SDS011;28233;55.748;48.752;2023-12-20T03:02:40;4.30;;;1.33;;
42602;SDS011;28233;55.748;48.752;2023-12-20T03:04:43;2.63;;;1.27;;
42602;SDS011;28233;55.748;48.752;2023-12-20T03:06:46;2.75;;;0.90;;
42602;SDS011;28233;55.748;48.752;2023-12-20T03:08:49;12.15;;;1.67;;
42602;SDS011;28233;55.748;48.752;2023-12-20T03:10:51;10.38;;;1.15;;
42602;SDS011;28233;55.748;48.752;2023-12-20T03:12:55;3.35;;;1.23;;
42602;SDS011;28233;55.748;48.752;2023-12-20T03:14:58;7.55;;;1.45;;
42602;SDS011;28233;55.748;48.752;2023-12-20T03:17:01;5.95;;;1.38;;
42602;SDS011;28233;55.748;48.752;2023-12-20T03:19:04;4.53;;;1.10;;
42602;SDS011;28233;55.748;48.752;2023-12-20T03:21:07;19.98;;;1.83;;
42602;SDS011;28233;55.748;48.752;2023-12-20T03:23:10;14.15;;;1.33;;
42602;SDS011;28233;55.748;48.752;2023-12-20T03:25:13;15.55;;;2.10;;
42602;SDS011;28233;55.748;48.752;2023-12-20T03:27:16;8.75;;;1.23;;
42602;SDS011;28233;55.748;48.752;2023-12-20T03:29:19;2.67;;;1.45;;
42602;SDS011;28233;55.748;48.752;2023-12-20T03:31:21;7.57;;;1.27;;
42602;SDS011;28233;55.748;48.752;2023-12-20T03:33:24;6.53;;;1.20;;
42602;SDS011;28233;55.748;48.752;2023-12-20T03:35:27;2.03;;;1.20;;
42602;SDS011;28233;55.748;48.752;2023-12-20T03:37:30;8.40;;;1.42;;
42602;SDS011;28233;55.748;48.752;2023-12-20T03:39:33;2.55;;;1.15;;
42602;SDS011;28233;55.748;48.752;2023-12-20T03:41:36;1.67;;;1.00;;
42602;SDS011;28233;55.748;48.752;2023-12-20T03:43:39;1.73;;;1.00;;
42602;SDS011;28233;55.748;48.752;2023-12-20T03:45:42;4.13;;;1.13;;
42602;SDS011;28233;55.748;48.752;2023-12-20T03:47:45;2.60;;;1.20;;
42602;SDS011;28233;55.748;48.752;2023-12-20T03:49:49;2.10;;;1.10;;
42602;SDS011;28233;55.748;48.752;2023-12-20T03:51:52;1.88;;;1.10;;
42602;SDS011;28233;55.748;48.752;2023-12-20T03:53:55;2.88;;;1.15;;
42602;SDS011;28233;55.748;48.752;2023-12-20T03:55:57;1.55;;;1.10;;
42602;SDS011;28233;55.748;48.752;2023-12-20T03:58:00;3.03;;;1.40;;
42602;SDS011;28233;55.748;48.752;2023-12-20T04:00:03;2.17;;;1.30;;
42602;SDS011;28233;55.748;48.752;2023-12-20T04:02:07;2.95;;;1.60;;
42602;SDS011;28233;55.748;48.752;2023-12-20T04:04:10;4.93;;;1.27;;
42602;SDS011;28233;55.748;48.752;2023-12-20T04:06:19;1.67;;;1.02;;
42602;SDS011;28233;55.748;48.752;2023-12-20T04:08:23;1.25;;;0.95;;
42602;SDS011;28233;55.748;48.752;2023-12-20T04:10:26;2.58;;;1.30;;
42602;SDS011;28233;55.748;48.752;2023-12-20T04:12:29;1.92;;;1.27;;
42602;SDS011;28233;55.748;48.752;2023-12-20T04:14:32;1.70;;;0.93;;
42602;SDS011;28233;55.748;48.752;2023-12-20T04:16:35;3.97;;;1.40;;
42602;SDS011;28233;55.748;48.752;2023-12-20T04:18:38;2.22;;;1.00;;
42602;SDS011;28233;55.748;48.752;2023-12-20T04:20:41;2.83;;;1.13;;
42602;SDS011;28233;55.748;48.752;2023-12-20T04:22:44;1.73;;;1.10;;
42602;SDS011;28233;55.748;48.752;2023-12-20T04:24:46;2.13;;;1.30;;
42602;SDS011;28233;55.748;48.752;2023-12-20T04:26:49;1.60;;;0.73;;
42602;SDS011;28233;55.748;48.752;2023-12-20T04:28:52;1.40;;;1.02;;
42602;SDS011;28233;55.748;48.752;2023-12-20T04:30:56;35.55;;;2.95;;
42602;SDS011;28233;55.748;48.752;2023-12-20T04:32:59;1.90;;;1.30;;
42602;SDS011;28233;55.748;48.752;2023-12-20T04:35:02;2.20;;;0.88;;
42602;SDS011;28233;55.748;48.752;2023-12-20T04:37:05;9.45;;;1.45;;
42602;SDS011;28233;55.748;48.752;2023-12-20T04:39:08;2.00;;;1.17;;
42602;SDS011;28233;55.748;48.752;2023-12-20T04:41:12;3.67;;;1.30;;
42602;SDS011;28233;55.748;48.752;2023-12-20T04:43:18;1.52;;;0.70;;
42602;SDS011;28233;55.748;48.752;2023-12-20T04:45:21;1.70;;;0.93;;
42602;SDS011;28233;55.748;48.752;2023-12-20T04:47:26;2.70;;;1.33;;
42602;SDS011;28233;55.748;48.752;2023-12-20T04:49:29;3.17;;;0.80;;
42602;SDS011;28233;55.748;48.752;2023-12-20T04:51:34;1.63;;;0.90;;
42602;SDS011;28233;55.748;48.752;2023-12-20T04:53:37;2.03;;;1.00;;
42602;SDS011;28233;55.748;48.752;2023-12-20T04:55:40;1.70;;;0.90;;
42602;SDS011;28233;55.748;48.752;2023-12-20T04:57:43;2.17;;;1.20;;
42602;SDS011;28233;55.748;48.752;2023-12-20T04:59:46;2.33;;;0.93;;
42602;SDS011;28233;55.748;48.752;2023-12-20T05:01:49;3.85;;;1.00;;
42602;SDS011;28233;55.748;48.752;2023-12-20T05:03:52;1.67;;;0.75;;
42602;SDS011;28233;55.748;48.752;2023-12-20T05:05:55;1.38;;;0.90;;
42602;SDS011;28233;55.748;48.752;2023-12-20T05:07:58;1.25;;;0.85;;
42602;SDS011;28233;55.748;48.752;2023-12-20T05:10:01;1.10;;;0.70;;
42602;SDS011;28233;55.748;48.752;2023-12-20T05:12:06;1.50;;;0.80;;
42602;SDS011;28233;55.748;48.752;2023-12-20T05:14:09;2.63;;;1.08;;
42602;SDS011;28233;55.748;48.752;2023-12-20T05:16:12;1.80;;;1.20;;
42602;SDS011;28233;55.748;48.752;2023-12-20T05:18:16;1.35;;;0.80;;
42602;SDS011;28233;55.748;48.752;2023-12-20T05:20:19;2.33;;;1.33;;
42602;SDS011;28233;55.748;48.752;2023-12-20T05:22:22;2.45;;;0.93;;
42602;SDS011;28233;55.748;48.752;2023-12-20T05:24:25;1.48;;;0.80;;
42602;SDS011;28233;55.748;48.752;2023-12-20T05:26:28;2.22;;;1.33;;
42602;SDS011;28233;55.748;48.752;2023-12-20T05:28:31;2.40;;;1.52;;
42602;SDS011;28233;55.748;48.752;2023-12-20T05:30:34;3.83;;;1.20;;
42602;SDS011;28233;55.748;48.752;2023-12-20T05:32:37;2.60;;;1.52;;
42602;SDS011;28233;55.748;48.752;2023-12-20T05:34:40;1.77;;;1.10;;
42602;SDS011;28233;55.748;48.752;2023-12-20T05:36:43;2.50;;;1.67;;
42602;SDS011;28233;55.748;48.752;2023-12-20T05:38:46;3.47;;;1.30;;
42602;SDS011;28233;55.748;48.752;2023-12-20T05:40:49;1.55;;;0.77;;
42602;SDS011;28233;55.748;48.752;2023-12-20T05:42:52;1.75;;;1.17;;
42602;SDS011;28233;55.748;48.752;2023-12-20T05:44:54;2.15;;;1.08;;
42602;SDS011;28233;55.748;48.752;2023-12-20T05:47:00;2.35;;;1.50;;
42602;SDS011;28233;55.748;48.752;2023-12-20T05:49:02;2.50;;;1.48;;
42602;SDS011;28233;55.748;48.752;2023-12-20T05:51:05;3.22;;;1.15;;
42602;SDS011;28233;55.748;48.752;2023-12-20T05:53:09;2.05;;;1.20;;
42602;SDS011;28233;55.748;48.752;2023-12-20T05:55:12;3.00;;;1.58;;
42602;SDS011;28233;55.748;48.752;2023-12-20T05:57:15;1.33;;;0.90;;
42602;SDS011;28233;55.748;48.752;2023-12-20T05:59:18;2.30;;;1.42;;
42602;SDS011;28233;55.748;48.752;2023-12-20T06:01:20;2.70;;;1.50;;
42602;SDS011;28233;55.748;48.752;2023-12-20T06:03:23;1.65;;;1.08;;
42602;SDS011;28233;55.748;48.752;2023-12-20T06:05:26;3.05;;;1.23;;
42602;SDS011;28233;55.748;48.752;2023-12-20T06:07:29;1.35;;;1.00;;
42602;SDS011;28233;55.748;48.752;2023-12-20T06:09:32;2.33;;;1.35;;
42602;SDS011;28233;55.748;48.752;2023-12-20T06:11:35;2.03;;;1.27;;
42602;SDS011;28233;55.748;48.752;2023-12-20T06:13:38;2.47;;;1.15;;
42602;SDS011;28233;55.748;48.752;2023-12-20T06:15:41;2.10;;;1.30;;
42602;SDS011;28233;55.748;48.752;2023-12-20T06:17:43;3.00;;;1.33;;
42602;SDS011;28233;55.748;48.752;2023-12-20T06:19:47;2.53;;;1.40;;
42602;SDS011;28233;55.748;48.752;2023-12-20T06:21:50;2.40;;;1.33;;
42602;SDS011;28233;55.748;48.752;2023-12-20T06:23:53;1.83;;;0.95;;
42602;SDS011;28233;55.748;48.752;2023-12-20T06:25:57;1.80;;;1.20;;
42602;SDS011;28233;55.748;48.752;2023-12-20T06:27:59;2.03;;;1.40;;
42602;SDS011;28233;55.748;48.752;2023-12-20T06:30:02;3.42;;;1.40;;
42602;SDS011;28233;55.748;48.752;2023-12-20T06:32:07;2.20;;;1.23;;
42602;SDS011;28233;55.748;48.752;2023-12-20T06:34:09;2.47;;;1.17;;
42602;SDS011;28233;55.748;48.752;2023-12-20T06:36:13;3.17;;;1.52;;
42602;SDS011;28233;55.748;48.752;2023-12-20T06:38:17;2.45;;;1.20;;
42602;SDS011;28233;55.748;48.752;2023-12-20T06:40:21;2.42;;;1.40;;
42602;SDS011;28233;55.748;48.752;2023-12-20T06:42:24;2.08;;;1.70;;
42602;SDS011;28233;55.748;48.752;2023-12-20T06:44:26;2.05;;;1.25;;
42602;SDS011;28233;55.748;48.752;2023-12-20T06:46:29;3.28;;;1.60;;
42602;SDS011;28233;55.748;48.752;2023-12-20T06:48:32;2.90;;;1.30;;
42602;SDS011;28233;55.748;48.752;2023-12-20T06:50:35;4.65;;;1.73;;
42602;SDS011;28233;55.748;48.752;2023-12-20T06:52:42;2.85;;;1.50;;
42602;SDS011;28233;55.748;48.752;2023-12-20T06:54:45;2.17;;;1.35;;
42602;SDS011;28233;55.748;48.752;2023-12-20T06:56:48;2.38;;;1.40;;
42602;SDS011;28233;55.748;48.752;2023-12-20T06:58:50;2.00;;;1.30;;
42602;SDS011;28233;55.748;48.752;2023-12-20T07:00:53;2.42;;;1.10;;
42602;SDS011;28233;55.748;48.752;2023-12-20T07:02:56;1.88;;;1.35;;
42602;SDS011;28233;55.748;48.752;2023-12-20T07:04:59;1.85;;;1.23;;
42602;SDS011;28233;55.748;48.752;2023-12-20T07:07:04;1.70;;;0.95;;
42602;SDS011;28233;55.748;48.752;2023-12-20T07:09:07;1.98;;;1.00;;
42602;SDS011;28233;55.748;48.752;2023-12-20T07:11:10;1.58;;;0.98;;
42602;SDS011;28233;55.748;48.752;2023-12-20T07:13:13;1.35;;;0.98;;
42602;SDS011;28233;55.748;48.752;2023-12-20T07:15:16;3.35;;;1.33;;
42602;SDS011;28233;55.748;48.752;2023-12-20T07:17:19;2.38;;;1.48;;
42602;SDS011;28233;55.748;48.752;2023-12-20T07:19:22;3.03;;;1.65;;
42602;SDS011;28233;55.748;48.752;2023-12-20T07:21:25;1.48;;;0.93;;
42602;SDS011;28233;55.748;48.752;2023-12-20T07:23:28;1.42;;;0.90;;
42602;SDS011;28233;55.748;48.752;2023-12-20T07:25:30;1.52;;;1.00;;
42602;SDS011;28233;55.748;48.752;2023-12-20T07:27:36;1.48;;;0.90;;
42602;SDS011;28233;55.748;48.752;2023-12-20T07:29:39;1.60;;;1.17;;
42602;SDS011;28233;55.748;48.752;2023-12-20T07:31:42;1.77;;;1.02;;
42602;SDS011;28233;55.748;48.752;2023-12-20T07:33:45;1.85;;;0.90;;
42602;SDS011;28233;55.748;48.752;2023-12-20T07:35:48;1.27;;;0.90;;
42602;SDS011;28233;55.748;48.752;2023-12-20T07:37:51;1.50;;;1.23;;
42602;SDS011;28233;55.748;48.752;2023-12-20T07:39:54;2.38;;;1.00;;
42602;SDS011;28233;55.748;48.752;2023-12-20T07:41:57;2.38;;;1.35;;
42602;SDS011;28233;55.748;48.752;2023-12-20T07:43:59;1.65;;;1.10;;
42602;SDS011;28233;55.748;48.752;2023-12-20T07:46:06;1.52;;;0.95;;
42602;SDS011;28233;55.748;48.752;2023-12-20T07:48:09;2.05;;;1.23;;
42602;SDS011;28233;55.748;48.752;2023-12-20T07:50:12;1.65;;;0.90;;
42602;SDS011;28233;55.748;48.752;2023-12-20T07:52:15;3.53;;;1.30;;
42602;SDS011;28233;55.748;48.752;2023-12-20T07:54:18;1.45;;;0.80;;
42602;SDS011;28233;55.748;48.752;2023-12-20T07:56:21;1.25;;;1.05;;
42602;SDS011;28233;55.748;48.752;2023-12-20T07:58:24;1.17;;;0.88;;
42602;SDS011;28233;55.748;48.752;2023-12-20T08:00:45;1.77;;;0.93;;
42602;SDS011;28233;55.748;48.752;2023-12-20T08:02:48;1.75;;;1.10;;
42602;SDS011;28233;55.748;48.752;2023-12-20T08:04:51;1.58;;;0.90;;
42602;SDS011;28233;55.748;48.752;2023-12-20T08:06:54;3.05;;;1.58;;
42602;SDS011;28233;55.748;48.752;2023-12-20T08:08:57;1.80;;;1.10;;
42602;SDS011;28233;55.748;48.752;2023-12-20T08:11:07;4.00;;;1.42;;
42602;SDS011;28233;55.748;48.752;2023-12-20T08:13:10;2.65;;;1.52;;
42602;SDS011;28233;55.748;48.752;2023-12-20T08:15:13;28.67;;;3.50;;
42602;SDS011;28233;55.748;48.752;2023-12-20T08:17:17;1.95;;;1.27;;
42602;SDS011;28233;55.748;48.752;2023-12-20T08:19:21;2.05;;;1.10;;
42602;SDS011;28233;55.748;48.752;2023-12-20T08:21:24;1.92;;;1.08;;
42602;SDS011;28233;55.748;48.752;2023-12-20T08:23:27;3.60;;;1.65;;
42602;SDS011;28233;55.748;48.752;2023-12-20T08:25:32;1.55;;;1.00;;
42602;SDS011;28233;55.748;48.752;2023-12-20T08:27:41;2.10;;;1.23;;
42602;SDS011;28233;55.748;48.752;2023-12-20T08:29:45;1.65;;;1.17;;
42602;SDS011;28233;55.748;48.752;2023-12-20T08:31:51;1.75;;;1.25;;
42602;SDS011;28233;55.748;48.752;2023-12-20T08:33:56;1.95;;;1.40;;
42602;SDS011;28233;55.748;48.752;2023-12-20T08:35:59;2.35;;;1.40;;
42602;SDS011;28233;55.748;48.752;2023-12-20T08:38:02;3.88;;;1.88;;
42602;SDS011;28233;55.748;48.752;2023-12-20T08:40:06;2.78;;;1.30;;
42602;SDS011;28233;55.748;48.752;2023-12-20T08:42:09;1.50;;;1.25;;
42602;SDS011;28233;55.748;48.752;2023-12-20T08:44:12;2.20;;;1.35;;
42602;SDS011;28233;55.748;48.752;2023-12-20T08:46:15;2.10;;;1.10;;
42602;SDS011;28233;55.748;48.752;2023-12-20T08:48:18;3.80;;;1.00;;
42602;SDS011;28233;55.748;48.752;2023-12-20T08:50:21;2.45;;;1.30;;
42602;SDS011;28233;55.748;48.752;2023-12-20T08:52:24;2.08;;;1.30;;
42602;SDS011;28233;55.748;48.752;2023-12-20T08:54:29;1.20;;;0.75;;
42602;SDS011;28233;55.748;48.752;2023-12-20T08:56:32;1.67;;;1.27;;
42602;SDS011;28233;55.748;48.752;2023-12-20T08:58:34;1.60;;;0.90;;
42602;SDS011;28233;55.748;48.752;2023-12-20T09:00:38;1.35;;;1.05;;
42602;SDS011;28233;55.748;48.752;2023-12-20T09:02:41;1.52;;;1.02;;
42602;SDS011;28233;55.748;48.752;2023-12-20T09:04:44;1.85;;;1.30;;
42602;SDS011;28233;55.748;48.752;2023-12-20T09:06:47;2.40;;;0.88;;
42602;SDS011;28233;55.748;48.752;2023-12-20T09:08:50;1.80;;;0.80;;
42602;SDS011;28233;55.748;48.752;2023-12-20T09:10:53;1.90;;;1.20;;
42602;SDS011;28233;55.748;48.752;2023-12-20T09:12:56;1.30;;;1.20;;
42602;SDS011;28233;55.748;48.752;2023-12-20T09:14:59;2.80;;;1.45;;
42602;SDS011;28233;55.748;48.752;2023-12-20T09:17:07;2.75;;;1.38;;
42602;SDS011;28233;55.748;48.752;2023-12-20T09:19:11;1.60;;;0.88;;
42602;SDS011;28233;55.748;48.752;2023-12-20T09:21:14;2.70;;;1.33;;
42602;SDS011;28233;55.748;48.752;2023-12-20T09:23:17;1.60;;;0.90;;
42602;SDS011;28233;55.748;48.752;2023-12-20T09:25:20;1.20;;;1.00;;
42602;SDS011;28233;55.748;48.752;2023-12-20T09:27:24;2.00;;;1.13;;
42602;SDS011;28233;55.748;48.752;2023-12-20T09:29:27;1.95;;;1.05;;
42602;SDS011;28233;55.748;48.752;2023-12-20T09:31:31;2.08;;;1.10;;
42602;SDS011;28233;55.748;48.752;2023-12-20T09:33:34;2.30;;;1.90;;
42602;SDS011;28233;55.748;48.752;2023-12-20T09:35:37;2.58;;;1.55;;
42602;SDS011;28233;55.748;48.752;2023-12-20T09:37:41;2.28;;;1.65;;
42602;SDS011;28233;55.748;48.752;2023-12-20T09:39:47;1.50;;;0.88;;
42602;SDS011;28233;55.748;48.752;2023-12-20T09:42:00;3.00;;;1.63;;
42602;SDS011;28233;55.748;48.752;2023-12-20T09:44:04;2.28;;;1.50;;
42602;SDS011;28233;55.748;48.752;2023-12-20T09:46:09;2.08;;;1.48;;
42602;SDS011;28233;55.748;48.752;2023-12-20T09:48:17;2.55;;;1.45;;
42602;SDS011;28233;55.748;48.752;2023-12-20T09:50:22;2.03;;;1.58;;
42602;SDS011;28233;55.748;48.752;2023-12-20T09:52:25;2.75;;;1.65;;
42602;SDS011;28233;55.748;48.752;2023-12-20T09:54:29;2.33;;;1.42;;
42602;SDS011;28233;55.748;48.752;2023-12-20T09:56:33;4.28;;;2.03;;
42602;SDS011;28233;55.748;48.752;2023-12-20T09:58:37;4.18;;;1.60;;
42602;SDS011;28233;55.748;48.752;2023-12-20T10:00:41;3.08;;;1.55;;
42602;SDS011;28233;55.748;48.752;2023-12-20T10:04:59;2.00;;;1.42;;
42602;SDS011;28233;55.748;48.752;2023-12-20T10:07:05;4.20;;;1.95;;
42602;SDS011;28233;55.748;48.752;2023-12-20T10:09:09;2.58;;;1.45;;
42602;SDS011;28233;55.748;48.752;2023-12-20T10:11:13;3.22;;;2.15;;
42602;SDS011;28233;55.748;48.752;2023-12-20T10:13:16;2.40;;;1.73;;
42602;SDS011;28233;55.748;48.752;2023-12-20T10:15:19;2.80;;;1.95;;
42602;SDS011;28233;55.748;48.752;2023-12-20T10:17:21;2.70;;;1.88;;
42602;SDS011;28233;55.748;48.752;2023-12-20T10:19:25;2.95;;;1.88;;
42602;SDS011;28233;55.748;48.752;2023-12-20T10:21:28;4.47;;;1.55;;
42602;SDS011;28233;55.748;48.752;2023-12-20T10:23:34;2.30;;;1.45;;
42602;SDS011;28233;55.748;48.752;2023-12-20T10:25:37;3.80;;;1.83;;
42602;SDS011;28233;55.748;48.752;2023-12-20T10:27:40;3.78;;;1.90;;
42602;SDS011;28233;55.748;48.752;2023-12-20T10:29:43;3.03;;;1.67;;
42602;SDS011;28233;55.748;48.752;2023-12-20T10:31:46;4.22;;;2.50;;
42602;SDS011;28233;55.748;48.752;2023-12-20T10:33:48;4.68;;;1.88;;
42602;SDS011;28233;55.748;48.752;2023-12-20T10:35:52;2.53;;;1.50;;
42602;SDS011;28233;55.748;48.752;2023-12-20T10:37:56;3.88;;;1.83;;
42602;SDS011;28233;55.748;48.752;2023-12-20T10:40:01;3.58;;;1.98;;
42602;SDS011;28233;55.748;48.752;2023-12-20T10:42:06;2.45;;;1.52;;
42602;SDS011;28233;55.748;48.752;2023-12-20T10:44:11;3.80;;;1.08;;
42602;SDS011;28233;55.748;48.752;2023-12-20T10:46:16;2.40;;;1.40;;
42602;SDS011;28233;55.748;48.752;2023-12-20T10:48:21;1.80;;;1.20;;
42602;SDS011;28233;55.748;48.752;2023-12-20T10:50:29;1.60;;;1.38;;
42602;SDS011;28233;55.748;48.752;2023-12-20T10:52:33;1.58;;;0.90;;
42602;SDS011;28233;55.748;48.752;2023-12-20T10:54:38;2.17;;;1.40;;
42602;SDS011;28233;55.748;48.752;2023-12-20T10:56:42;3.65;;;1.10;;
42602;SDS011;28233;55.748;48.752;2023-12-20T10:58:46;2.15;;;1.38;;
42602;SDS011;28233;55.748;48.752;2023-12-20T11:00:49;2.05;;;1.48;;
42602;SDS011;28233;55.748;48.752;2023-12-20T11:03:01;3.38;;;1.42;;
42602;SDS011;28233;55.748;48.752;2023-12-20T11:05:15;2.03;;;1.10;;
42602;SDS011;28233;55.748;48.752;2023-12-20T11:07:38;1.92;;;0.90;;
42602;SDS011;28233;55.748;48.752;2023-12-20T11:10:00;2.67;;;1.20;;
42602;SDS011;28233;55.748;48.752;2023-12-20T11:12:17;2.28;;;1.23;;
42602;SDS011;28233;55.748;48.752;2023-12-20T11:14:45;1.13;;;0.90;;
42602;SDS011;28233;55.748;48.752;2023-12-20T11:18:56;1.50;;;0.82;;
42602;SDS011;28233;55.748;48.752;2023-12-20T11:21:00;1.52;;;0.80;;
42602;SDS011;28233;55.748;48.752;2023-12-20T11:23:08;2.00;;;1.00;;
42602;SDS011;28233;55.748;48.752;2023-12-20T11:25:11;1.80;;;0.90;;
42602;SDS011;28233;55.748;48.752;2023-12-20T11:27:15;3.40;;;1.42;;
42602;SDS011;28233;55.748;48.752;2023-12-20T11:31:41;2.08;;;1.30;;
42602;SDS011;28233;55.748;48.752;2023-12-20T11:33:45;2.22;;;1.50;;
42602;SDS011;28233;55.748;48.752;2023-12-20T11:35:51;2.08;;;1.17;;
42602;SDS011;28233;55.748;48.752;2023-12-20T11:37:57;2.15;;;1.40;;
42602;SDS011;28233;55.748;48.752;2023-12-20T11:40:01;2.08;;;1.50;;
42602;SDS011;28233;55.748;48.752;2023-12-20T11:42:24;1.67;;;1.10;;
42602;SDS011;28233;55.748;48.752;2023-12-20T11:44:27;2.35;;;1.58;;
42602;SDS011;28233;55.748;48.752;2023-12-20T11:46:33;2.60;;;1.52;;
42602;SDS011;28233;55.748;48.752;2023-12-20T11:48:37;1.80;;;1.45;;
42602;SDS011;28233;55.748;48.752;2023-12-20T11:50:41;4.60;;;1.98;;
42602;SDS011;28233;55.748;48.752;2023-12-20T11:52:44;2.33;;;1.15;;
42602;SDS011;28233;55.748;48.752;2023-12-20T11:54:47;6.07;;;1.45;;
42602;SDS011;28233;55.748;48.752;2023-12-20T11:56:50;2.50;;;1.80;;
42602;SDS011;28233;55.748;48.752;2023-12-20T11:58:53;2.95;;;1.52;;
42602;SDS011;28233;55.748;48.752;2023-12-20T12:01:01;4.25;;;2.05;;
42602;SDS011;28233;55.748;48.752;2023-12-20T12:03:05;3.25;;;2.08;;
42602;SDS011;28233;55.748;48.752;2023-12-20T12:05:08;2.50;;;1.42;;
42602;SDS011;28233;55.748;48.752;2023-12-20T12:07:13;2.38;;;1.27;;
42602;SDS011;28233;55.748;48.752;2023-12-20T12:09:16;3.58;;;1.95;;
42602;SDS011;28233;55.748;48.752;2023-12-20T12:11:25;2.88;;;1.90;;
42602;SDS011;28233;55.748;48.752;2023-12-20T12:13:28;2.10;;;1.40;;
42602;SDS011;28233;55.748;48.752;2023-12-20T12:15:31;4.18;;;1.55;;
42602;SDS011;28233;55.748;48.752;2023-12-20T12:17:34;3.10;;;1.75;;
42602;SDS011;28233;55.748;48.752;2023-12-20T12:19:39;3.80;;;1.60;;
42602;SDS011;28233;55.748;48.752;2023-12-20T12:21:43;4.07;;;1.73;;